sensor_id;sensor_type;location;lat;lon;timestamp;temperature;humidity
7159;DHT22;63175;52.374;13.132;2023-03-01T00:01:33;0.10;99.90
7159;DHT22;63175;52.374;13.132;2023-03-01T00:04:00;0.10;99.90
7159;DHT22;63175;52.374;13.132;2023-03-01T00:06:28;0.10;99.90
7159;DHT22;63175;52.374;13.132;2023-03-01T00:08:55;0.10;99.90
7159;DHT22;63175;52.374;13.132;2023-03-01T00:11:26;0.00;99.90
7159;DHT22;63175;52.374;13.132;2023-03-01T00:13:54;0.00;99.90
7159;DHT22;63175;52.374;13.132;2023-03-01T00:16:24;0.00;99.90
7159;DHT22;63175;52.374;13.132;2023-03-01T00:18:51;0.00;99.90
7159;DHT22;63175;52.374;13.132;2023-03-01T00:21:20;0.00;99.90
7159;DHT22;63175;52.374;13.132;2023-03-01T00:23:48;0.00;99.90
7159;DHT22;63175;52.374;13.132;2023-03-01T00:26:16;0.00;99.90
7159;DHT22;63175;52.374;13.132;2023-03-01T00:28:45;0.00;99.90
7159;DHT22;63175;52.374;13.132;2023-03-01T00:31:14;0.00;99.90
7159;DHT22;63175;52.374;13.132;2023-03-01T00:33:41;0.00;99.90
7159;DHT22;63175;52.374;13.132;2023-03-01T00:36:08;0.00;99.90
7159;DHT22;63175;52.374;13.132;2023-03-01T00:38:36;0.00;99.90
7159;DHT22;63175;52.374;13.132;2023-03-01T00:41:04;-0.10;99.90
7159;DHT22;63175;52.374;13.132;2023-03-01T00:43:31;-0.10;99.90
7159;DHT22;63175;52.374;13.132;2023-03-01T00:46:04;-0.10;99.90
7159;DHT22;63175;52.374;13.132;2023-03-01T00:48:31;-0.10;99.90
7159;DHT22;63175;52.374;13.132;2023-03-01T00:51:04;-0.20;99.90
7159;DHT22;63175;52.374;13.132;2023-03-01T00:53:31;-0.20;99.90
7159;DHT22;63175;52.374;13.132;2023-03-01T00:55:58;-0.20;99.90
7159;DHT22;63175;52.374;13.132;2023-03-01T00:58:26;-0.20;99.90
7159;DHT22;63175;52.374;13.132;2023-03-01T01:00:53;-0.20;99.90
7159;DHT22;63175;52.374;13.132;2023-03-01T01:03:21;-0.30;99.90
7159;DHT22;63175;52.374;13.132;2023-03-01T01:05:50;-0.30;99.90
7159;DHT22;63175;52.374;13.132;2023-03-01T01:08:17;-0.30;99.90
7159;DHT22;63175;52.374;13.132;2023-03-01T01:10:44;-0.30;99.90
7159;DHT22;63175;52.374;13.132;2023-03-01T01:13:11;-0.30;99.90
7159;DHT22;63175;52.374;13.132;2023-03-01T01:15:39;-0.40;99.90
7159;DHT22;63175;52.374;13.132;2023-03-01T01:18:06;-0.40;99.90
7159;DHT22;63175;52.374;13.132;2023-03-01T01:20:35;-0.40;99.90
7159;DHT22;63175;52.374;13.132;2023-03-01T01:23:05;-0.40;99.90
7159;DHT22;63175;52.374;13.132;2023-03-01T01:25:34;-0.40;99.90
7159;DHT22;63175;52.374;13.132;2023-03-01T01:28:01;-0.40;99.90
7159;DHT22;63175;52.374;13.132;2023-03-01T01:30:28;-0.50;99.90
7159;DHT22;63175;52.374;13.132;2023-03-01T01:32:55;-0.50;99.90
7159;DHT22;63175;52.374;13.132;2023-03-01T01:35:22;-0.60;99.90
7159;DHT22;63175;52.374;13.132;2023-03-01T01:37:50;-0.60;99.90
7159;DHT22;63175;52.374;13.132;2023-03-01T01:40:17;-0.60;99.90
7159;DHT22;63175;52.374;13.132;2023-03-01T01:42:44;-0.70;99.90
7159;DHT22;63175;52.374;13.132;2023-03-01T01:45:29;-0.70;99.90
7159;DHT22;63175;52.374;13.132;2023-03-01T01:48:00;-0.70;99.90
7159;DHT22;63175;52.374;13.132;2023-03-01T01:50:27;-0.70;99.90
7159;DHT22;63175;52.374;13.132;2023-03-01T01:53:06;-0.80;99.90
7159;DHT22;63175;52.374;13.132;2023-03-01T01:55:36;-0.80;99.90
7159;DHT22;63175;52.374;13.132;2023-03-01T01:58:05;-0.80;99.90
7159;DHT22;63175;52.374;13.132;2023-03-01T02:00:33;-0.90;99.90
7159;DHT22;63175;52.374;13.132;2023-03-01T02:03:03;-0.90;99.90
7159;DHT22;63175;52.374;13.132;2023-03-01T02:05:35;-0.90;99.90
7159;DHT22;63175;52.374;13.132;2023-03-01T02:08:05;-1.00;99.90
7159;DHT22;63175;52.374;13.132;2023-03-01T02:10:33;-1.00;99.90
7159;DHT22;63175;52.374;13.132;2023-03-01T02:13:01;-1.00;99.90
7159;DHT22;63175;52.374;13.132;2023-03-01T02:15:32;-1.00;99.90
7159;DHT22;63175;52.374;13.132;2023-03-01T02:17:59;-1.00;99.90
7159;DHT22;63175;52.374;13.132;2023-03-01T02:20:34;-1.00;99.90
7159;DHT22;63175;52.374;13.132;2023-03-01T02:23:02;-1.00;99.90
7159;DHT22;63175;52.374;13.132;2023-03-01T02:25:37;-1.10;99.90
7159;DHT22;63175;52.374;13.132;2023-03-01T02:28:19;-1.10;99.90
7159;DHT22;63175;52.374;13.132;2023-03-01T02:30:47;-1.10;99.90
7159;DHT22;63175;52.374;13.132;2023-03-01T02:33:29;-1.20;99.90
7159;DHT22;63175;52.374;13.132;2023-03-01T02:35:59;-1.20;99.90
7159;DHT22;63175;52.374;13.132;2023-03-01T02:38:27;-1.30;99.90
7159;DHT22;63175;52.374;13.132;2023-03-01T02:40:54;-1.20;99.90
7159;DHT22;63175;52.374;13.132;2023-03-01T02:43:28;-1.20;99.90
7159;DHT22;63175;52.374;13.132;2023-03-01T02:45:58;-1.30;99.90
7159;DHT22;63175;52.374;13.132;2023-03-01T02:48:25;-1.20;99.90
7159;DHT22;63175;52.374;13.132;2023-03-01T02:51:02;-1.30;99.90
7159;DHT22;63175;52.374;13.132;2023-03-01T02:53:35;-1.30;99.90
7159;DHT22;63175;52.374;13.132;2023-03-01T02:56:05;-1.30;99.90
7159;DHT22;63175;52.374;13.132;2023-03-01T02:58:40;-1.50;99.90
7159;DHT22;63175;52.374;13.132;2023-03-01T03:01:11;-1.40;99.90
7159;DHT22;63175;52.374;13.132;2023-03-01T03:03:39;-1.40;99.90
7159;DHT22;63175;52.374;13.132;2023-03-01T03:06:06;-1.40;99.90
7159;DHT22;63175;52.374;13.132;2023-03-01T03:08:33;-1.40;99.90
7159;DHT22;63175;52.374;13.132;2023-03-01T03:11:00;-1.40;99.90
7159;DHT22;63175;52.374;13.132;2023-03-01T03:13:27;-1.50;99.90
7159;DHT22;63175;52.374;13.132;2023-03-01T03:15:56;-1.50;99.90
7159;DHT22;63175;52.374;13.132;2023-03-01T03:18:23;-1.50;99.90
7159;DHT22;63175;52.374;13.132;2023-03-01T03:20:51;-1.50;99.90
7159;DHT22;63175;52.374;13.132;2023-03-01T03:23:19;-1.60;99.90
7159;DHT22;63175;52.374;13.132;2023-03-01T03:25:48;-1.50;99.90
7159;DHT22;63175;52.374;13.132;2023-03-01T03:28:15;-1.60;99.90
7159;DHT22;63175;52.374;13.132;2023-03-01T03:30:43;-1.60;99.90
7159;DHT22;63175;52.374;13.132;2023-03-01T03:33:12;-1.60;99.90
7159;DHT22;63175;52.374;13.132;2023-03-01T03:35:41;-1.60;99.90
7159;DHT22;63175;52.374;13.132;2023-03-01T03:38:10;-1.60;99.90
7159;DHT22;63175;52.374;13.132;2023-03-01T03:40:43;-1.60;99.90
7159;DHT22;63175;52.374;13.132;2023-03-01T03:43:12;-1.70;99.90
7159;DHT22;63175;52.374;13.132;2023-03-01T03:45:39;-1.70;99.90
7159;DHT22;63175;52.374;13.132;2023-03-01T03:48:08;-1.60;99.90
7159;DHT22;63175;52.374;13.132;2023-03-01T03:50:38;-1.70;99.90
7159;DHT22;63175;52.374;13.132;2023-03-01T03:53:06;-1.70;99.90
7159;DHT22;63175;52.374;13.132;2023-03-01T03:55:34;-1.70;99.90
7159;DHT22;63175;52.374;13.132;2023-03-01T03:58:05;-1.70;99.90
7159;DHT22;63175;52.374;13.132;2023-03-01T04:00:34;-1.70;99.90
7159;DHT22;63175;52.374;13.132;2023-03-01T04:03:01;-1.70;99.90
7159;DHT22;63175;52.374;13.132;2023-03-01T04:05:28;-1.70;99.90
7159;DHT22;63175;52.374;13.132;2023-03-01T04:07:57;-1.70;99.90
7159;DHT22;63175;52.374;13.132;2023-03-01T04:10:34;-1.80;99.90
7159;DHT22;63175;52.374;13.132;2023-03-01T04:13:01;-1.80;99.90
7159;DHT22;63175;52.374;13.132;2023-03-01T04:15:28;-1.80;99.90
7159;DHT22;63175;52.374;13.132;2023-03-01T04:17:55;-1.60;99.90
7159;DHT22;63175;52.374;13.132;2023-03-01T04:20:23;-1.80;99.90
7159;DHT22;63175;52.374;13.132;2023-03-01T04:22:52;-1.80;99.90
7159;DHT22;63175;52.374;13.132;2023-03-01T04:25:21;-1.80;99.90
7159;DHT22;63175;52.374;13.132;2023-03-01T04:27:48;-1.80;99.90
7159;DHT22;63175;52.374;13.132;2023-03-01T04:30:15;-1.90;99.90
7159;DHT22;63175;52.374;13.132;2023-03-01T04:32:42;-1.90;99.90
7159;DHT22;63175;52.374;13.132;2023-03-01T04:35:09;-1.80;99.90
7159;DHT22;63175;52.374;13.132;2023-03-01T04:37:36;-1.90;99.90
7159;DHT22;63175;52.374;13.132;2023-03-01T04:40:04;-1.90;99.90
7159;DHT22;63175;52.374;13.132;2023-03-01T04:42:42;-1.90;99.90
7159;DHT22;63175;52.374;13.132;2023-03-01T04:45:10;-1.90;99.90
7159;DHT22;63175;52.374;13.132;2023-03-01T04:47:40;-2.00;99.90
7159;DHT22;63175;52.374;13.132;2023-03-01T04:50:09;-2.00;99.90
7159;DHT22;63175;52.374;13.132;2023-03-01T04:52:37;-2.10;99.90
7159;DHT22;63175;52.374;13.132;2023-03-01T04:55:05;-2.10;99.90
7159;DHT22;63175;52.374;13.132;2023-03-01T04:57:32;-2.10;99.90
7159;DHT22;63175;52.374;13.132;2023-03-01T05:00:01;-2.10;99.90
7159;DHT22;63175;52.374;13.132;2023-03-01T05:02:32;-2.10;99.90
7159;DHT22;63175;52.374;13.132;2023-03-01T05:04:59;-2.10;99.90
7159;DHT22;63175;52.374;13.132;2023-03-01T05:07:26;-2.10;99.90
7159;DHT22;63175;52.374;13.132;2023-03-01T05:09:52;-2.10;99.90
7159;DHT22;63175;52.374;13.132;2023-03-01T05:12:19;-2.10;99.90
7159;DHT22;63175;52.374;13.132;2023-03-01T05:14:46;-2.10;99.90
7159;DHT22;63175;52.374;13.132;2023-03-01T05:17:15;-2.10;99.90
7159;DHT22;63175;52.374;13.132;2023-03-01T05:19:41;-2.20;99.90
7159;DHT22;63175;52.374;13.132;2023-03-01T05:22:08;-2.20;99.90
7159;DHT22;63175;52.374;13.132;2023-03-01T05:24:35;-2.20;99.90
7159;DHT22;63175;52.374;13.132;2023-03-01T05:27:04;-2.10;99.90
7159;DHT22;63175;52.374;13.132;2023-03-01T05:29:31;-2.20;99.90
7159;DHT22;63175;52.374;13.132;2023-03-01T05:32:01;-2.20;99.90
7159;DHT22;63175;52.374;13.132;2023-03-01T05:34:31;-2.20;99.90
7159;DHT22;63175;52.374;13.132;2023-03-01T05:36:58;-2.20;99.90
7159;DHT22;63175;52.374;13.132;2023-03-01T05:39:27;-2.20;99.90
7159;DHT22;63175;52.374;13.132;2023-03-01T05:41:55;-2.20;99.90
7159;DHT22;63175;52.374;13.132;2023-03-01T05:44:23;-2.20;99.90
7159;DHT22;63175;52.374;13.132;2023-03-01T05:46:50;-2.20;99.90
7159;DHT22;63175;52.374;13.132;2023-03-01T05:49:17;-2.20;99.90
7159;DHT22;63175;52.374;13.132;2023-03-01T05:51:49;-2.30;99.90
7159;DHT22;63175;52.374;13.132;2023-03-01T05:54:16;-2.30;99.90
7159;DHT22;63175;52.374;13.132;2023-03-01T05:56:43;-2.30;99.90
7159;DHT22;63175;52.374;13.132;2023-03-01T05:59:10;-2.30;99.90
7159;DHT22;63175;52.374;13.132;2023-03-01T06:01:37;-2.30;99.90
7159;DHT22;63175;52.374;13.132;2023-03-01T06:04:04;-2.30;99.90
7159;DHT22;63175;52.374;13.132;2023-03-01T06:06:34;-2.30;99.90
7159;DHT22;63175;52.374;13.132;2023-03-01T06:09:04;-2.30;99.90
7159;DHT22;63175;52.374;13.132;2023-03-01T06:11:34;-2.30;99.90
7159;DHT22;63175;52.374;13.132;2023-03-01T06:14:00;-2.30;99.90
7159;DHT22;63175;52.374;13.132;2023-03-01T06:16:27;-2.30;99.90
7159;DHT22;63175;52.374;13.132;2023-03-01T06:18:54;-2.30;99.90
7159;DHT22;63175;52.374;13.132;2023-03-01T06:21:21;-2.20;99.90
7159;DHT22;63175;52.374;13.132;2023-03-01T06:23:48;-2.20;99.90
7159;DHT22;63175;52.374;13.132;2023-03-01T06:26:16;-2.10;99.90
7159;DHT22;63175;52.374;13.132;2023-03-01T06:28:43;-2.00;99.90
7159;DHT22;63175;52.374;13.132;2023-03-01T06:31:11;-1.80;99.90
7159;DHT22;63175;52.374;13.132;2023-03-01T06:33:38;-1.70;99.90
7159;DHT22;63175;52.374;13.132;2023-03-01T06:36:06;-1.50;99.90
7159;DHT22;63175;52.374;13.132;2023-03-01T06:38:33;-1.40;99.90
7159;DHT22;63175;52.374;13.132;2023-03-01T06:41:00;-1.30;99.90
7159;DHT22;63175;52.374;13.132;2023-03-01T06:43:28;-1.20;99.90
7159;DHT22;63175;52.374;13.132;2023-03-01T06:45:56;-1.10;99.90
7159;DHT22;63175;52.374;13.132;2023-03-01T06:48:22;-0.90;99.90
7159;DHT22;63175;52.374;13.132;2023-03-01T06:50:49;-0.70;99.90
7159;DHT22;63175;52.374;13.132;2023-03-01T06:53:16;-0.50;99.90
7159;DHT22;63175;52.374;13.132;2023-03-01T06:55:43;-0.40;99.90
7159;DHT22;63175;52.374;13.132;2023-03-01T06:58:10;-0.20;99.90
7159;DHT22;63175;52.374;13.132;2023-03-01T07:00:38;-0.10;99.90
7159;DHT22;63175;52.374;13.132;2023-03-01T07:03:06;0.10;99.90
7159;DHT22;63175;52.374;13.132;2023-03-01T07:05:33;0.30;99.90
7159;DHT22;63175;52.374;13.132;2023-03-01T07:08:00;0.50;99.90
7159;DHT22;63175;52.374;13.132;2023-03-01T07:10:27;0.70;99.90
7159;DHT22;63175;52.374;13.132;2023-03-01T07:12:55;0.90;99.90
7159;DHT22;63175;52.374;13.132;2023-03-01T07:15:22;1.10;99.90
7159;DHT22;63175;52.374;13.132;2023-03-01T07:17:50;1.30;99.90
7159;DHT22;63175;52.374;13.132;2023-03-01T07:20:18;1.60;99.90
7159;DHT22;63175;52.374;13.132;2023-03-01T07:22:47;1.80;99.90
7159;DHT22;63175;52.374;13.132;2023-03-01T07:25:14;2.10;99.90
7159;DHT22;63175;52.374;13.132;2023-03-01T07:27:41;2.50;99.90
7159;DHT22;63175;52.374;13.132;2023-03-01T07:30:09;2.80;99.90
7159;DHT22;63175;52.374;13.132;2023-03-01T07:32:36;3.20;99.90
7159;DHT22;63175;52.374;13.132;2023-03-01T07:35:06;3.60;99.90
7159;DHT22;63175;52.374;13.132;2023-03-01T07:37:33;3.90;99.90
7159;DHT22;63175;52.374;13.132;2023-03-01T07:40:00;4.30;99.90
7159;DHT22;63175;52.374;13.132;2023-03-01T07:42:26;4.60;99.90
7159;DHT22;63175;52.374;13.132;2023-03-01T07:44:53;5.00;98.80
7159;DHT22;63175;52.374;13.132;2023-03-01T07:47:20;5.30;97.80
7159;DHT22;63175;52.374;13.132;2023-03-01T07:49:47;5.60;96.60
7159;DHT22;63175;52.374;13.132;2023-03-01T07:52:15;6.00;95.50
7159;DHT22;63175;52.374;13.132;2023-03-01T07:54:43;6.40;94.30
7159;DHT22;63175;52.374;13.132;2023-03-01T07:57:10;6.80;93.00
7159;DHT22;63175;52.374;13.132;2023-03-01T07:59:37;7.30;91.50
7159;DHT22;63175;52.374;13.132;2023-03-01T08:02:04;7.70;88.90
7159;DHT22;63175;52.374;13.132;2023-03-01T08:04:31;8.20;85.90
7159;DHT22;63175;52.374;13.132;2023-03-01T08:06:59;8.60;81.70
7159;DHT22;63175;52.374;13.132;2023-03-01T08:09:27;9.10;79.10
7159;DHT22;63175;52.374;13.132;2023-03-01T08:11:55;9.50;75.70
7159;DHT22;63175;52.374;13.132;2023-03-01T08:14:22;9.80;72.00
7159;DHT22;63175;52.374;13.132;2023-03-01T08:16:50;10.00;68.30
7159;DHT22;63175;52.374;13.132;2023-03-01T08:19:17;10.20;67.00
7159;DHT22;63175;52.374;13.132;2023-03-01T08:21:43;10.60;65.00
7159;DHT22;63175;52.374;13.132;2023-03-01T08:24:10;11.00;63.40
7159;DHT22;63175;52.374;13.132;2023-03-01T08:26:39;11.50;61.10
7159;DHT22;63175;52.374;13.132;2023-03-01T08:29:06;12.00;59.40
7159;DHT22;63175;52.374;13.132;2023-03-01T08:31:35;12.60;57.40
7159;DHT22;63175;52.374;13.132;2023-03-01T08:34:04;13.30;55.00
7159;DHT22;63175;52.374;13.132;2023-03-01T08:36:34;14.10;52.60
7159;DHT22;63175;52.374;13.132;2023-03-01T08:39:02;14.80;50.60
7159;DHT22;63175;52.374;13.132;2023-03-01T08:41:30;15.40;48.80
7159;DHT22;63175;52.374;13.132;2023-03-01T08:43:58;15.60;47.20
7159;DHT22;63175;52.374;13.132;2023-03-01T08:46:26;15.80;46.20
7159;DHT22;63175;52.374;13.132;2023-03-01T08:48:53;15.90;45.20
7159;DHT22;63175;52.374;13.132;2023-03-01T08:51:20;16.10;44.30
7159;DHT22;63175;52.374;13.132;2023-03-01T08:53:47;16.30;43.70
7159;DHT22;63175;52.374;13.132;2023-03-01T08:56:15;16.40;42.70
7159;DHT22;63175;52.374;13.132;2023-03-01T08:58:44;16.40;42.50
7159;DHT22;63175;52.374;13.132;2023-03-01T09:01:14;16.70;42.10
7159;DHT22;63175;52.374;13.132;2023-03-01T09:03:42;17.00;41.10
7159;DHT22;63175;52.374;13.132;2023-03-01T09:06:09;17.30;40.00
7159;DHT22;63175;52.374;13.132;2023-03-01T09:08:38;17.80;39.40
7159;DHT22;63175;52.374;13.132;2023-03-01T09:11:07;18.30;38.80
7159;DHT22;63175;52.374;13.132;2023-03-01T09:13:34;18.80;38.00
7159;DHT22;63175;52.374;13.132;2023-03-01T09:16:03;19.30;37.30
7159;DHT22;63175;52.374;13.132;2023-03-01T09:18:32;19.70;36.40
7159;DHT22;63175;52.374;13.132;2023-03-01T09:21:03;19.70;36.10
7159;DHT22;63175;52.374;13.132;2023-03-01T09:23:32;19.60;36.10
7159;DHT22;63175;52.374;13.132;2023-03-01T09:25:59;19.60;36.20
7159;DHT22;63175;52.374;13.132;2023-03-01T09:28:26;19.50;35.80
7159;DHT22;63175;52.374;13.132;2023-03-01T09:30:53;19.30;35.90
7159;DHT22;63175;52.374;13.132;2023-03-01T09:33:20;19.00;36.00
7159;DHT22;63175;52.374;13.132;2023-03-01T09:35:48;18.70;35.10
7159;DHT22;63175;52.374;13.132;2023-03-01T09:38:15;18.40;35.30
7159;DHT22;63175;52.374;13.132;2023-03-01T09:40:43;18.30;35.50
7159;DHT22;63175;52.374;13.132;2023-03-01T09:43:20;18.30;35.20
7159;DHT22;63175;52.374;13.132;2023-03-01T09:45:49;18.20;36.10
7159;DHT22;63175;52.374;13.132;2023-03-01T09:48:21;18.10;36.10
7159;DHT22;63175;52.374;13.132;2023-03-01T09:50:51;17.90;37.10
7159;DHT22;63175;52.374;13.132;2023-03-01T09:53:20;17.80;37.20
7159;DHT22;63175;52.374;13.132;2023-03-01T09:55:51;17.60;37.30
7159;DHT22;63175;52.374;13.132;2023-03-01T09:58:31;17.60;36.60
7159;DHT22;63175;52.374;13.132;2023-03-01T10:01:11;17.60;36.70
7159;DHT22;63175;52.374;13.132;2023-03-01T10:03:44;17.60;36.40
7159;DHT22;63175;52.374;13.132;2023-03-01T10:06:21;17.60;36.60
7159;DHT22;63175;52.374;13.132;2023-03-01T10:08:54;17.60;36.70
7159;DHT22;63175;52.374;13.132;2023-03-01T10:11:25;17.70;36.20
7159;DHT22;63175;52.374;13.132;2023-03-01T10:13:58;18.00;35.60
7159;DHT22;63175;52.374;13.132;2023-03-01T10:16:38;18.90;34.90
7159;DHT22;63175;52.374;13.132;2023-03-01T10:19:10;20.20;33.60
7159;DHT22;63175;52.374;13.132;2023-03-01T10:21:45;21.40;32.30
7159;DHT22;63175;52.374;13.132;2023-03-01T10:24:14;22.80;30.90
7159;DHT22;63175;52.374;13.132;2023-03-01T10:26:48;24.10;29.20
7159;DHT22;63175;52.374;13.132;2023-03-01T10:29:18;25.50;28.70
7159;DHT22;63175;52.374;13.132;2023-03-01T10:31:49;26.70;27.90
7159;DHT22;63175;52.374;13.132;2023-03-01T10:34:18;27.30;27.60
7159;DHT22;63175;52.374;13.132;2023-03-01T10:36:50;27.50;26.50
7159;DHT22;63175;52.374;13.132;2023-03-01T10:39:19;27.30;25.90
7159;DHT22;63175;52.374;13.132;2023-03-01T10:41:55;27.10;26.60
7159;DHT22;63175;52.374;13.132;2023-03-01T10:44:46;26.90;25.90
7159;DHT22;63175;52.374;13.132;2023-03-01T10:47:19;26.90;26.10
7159;DHT22;63175;52.374;13.132;2023-03-01T10:50:00;26.90;25.80
7159;DHT22;63175;52.374;13.132;2023-03-01T10:52:34;26.60;25.80
7159;DHT22;63175;52.374;13.132;2023-03-01T10:55:04;26.40;26.20
7159;DHT22;63175;52.374;13.132;2023-03-01T10:57:47;26.30;26.20
7159;DHT22;63175;52.374;13.132;2023-03-01T11:00:17;26.10;26.60
7159;DHT22;63175;52.374;13.132;2023-03-01T11:02:48;26.10;26.10
7159;DHT22;63175;52.374;13.132;2023-03-01T11:05:21;25.80;26.20
7159;DHT22;63175;52.374;13.132;2023-03-01T11:07:53;25.90;26.10
7159;DHT22;63175;52.374;13.132;2023-03-01T11:10:23;26.70;25.30
7159;DHT22;63175;52.374;13.132;2023-03-01T11:12:52;28.10;24.60
7159;DHT22;63175;52.374;13.132;2023-03-01T11:15:22;29.70;23.90
7159;DHT22;63175;52.374;13.132;2023-03-01T11:17:50;31.40;22.70
7159;DHT22;63175;52.374;13.132;2023-03-01T11:20:24;32.90;21.80
7159;DHT22;63175;52.374;13.132;2023-03-01T11:22:54;34.20;20.70
7159;DHT22;63175;52.374;13.132;2023-03-01T11:25:25;35.10;19.90
7159;DHT22;63175;52.374;13.132;2023-03-01T11:27:53;35.50;19.60
7159;DHT22;63175;52.374;13.132;2023-03-01T11:30:24;36.10;19.20
7159;DHT22;63175;52.374;13.132;2023-03-01T11:33:03;36.60;18.70
7159;DHT22;63175;52.374;13.132;2023-03-01T11:35:32;37.10;18.50
7159;DHT22;63175;52.374;13.132;2023-03-01T11:38:07;37.40;18.10
7159;DHT22;63175;52.374;13.132;2023-03-01T11:40:40;37.30;18.20
7159;DHT22;63175;52.374;13.132;2023-03-01T11:43:15;36.90;17.70
7159;DHT22;63175;52.374;13.132;2023-03-01T11:48:47;36.90;17.90
7159;DHT22;63175;52.374;13.132;2023-03-01T11:51:23;37.30;17.50
7159;DHT22;63175;52.374;13.132;2023-03-01T11:53:59;37.70;17.50
7159;DHT22;63175;52.374;13.132;2023-03-01T11:56:32;37.90;17.10
7159;DHT22;63175;52.374;13.132;2023-03-01T11:59:21;37.90;17.20
7159;DHT22;63175;52.374;13.132;2023-03-01T12:02:24;38.00;17.30
7159;DHT22;63175;52.374;13.132;2023-03-01T12:07:55;35.20;17.90
7159;DHT22;63175;52.374;13.132;2023-03-01T12:10:28;33.10;18.80
7159;DHT22;63175;52.374;13.132;2023-03-01T12:16:26;30.20;20.50
7159;DHT22;63175;52.374;13.132;2023-03-01T12:19:21;29.10;21.00
7159;DHT22;63175;52.374;13.132;2023-03-01T12:22:14;28.10;21.40
7159;DHT22;63175;52.374;13.132;2023-03-01T12:24:58;27.20;21.80
7159;DHT22;63175;52.374;13.132;2023-03-01T12:27:46;26.90;21.90
7159;DHT22;63175;52.374;13.132;2023-03-01T12:30:25;27.50;21.40
7159;DHT22;63175;52.374;13.132;2023-03-01T12:33:04;27.90;21.30
7159;DHT22;63175;52.374;13.132;2023-03-01T12:36:07;27.80;21.10
7159;DHT22;63175;52.374;13.132;2023-03-01T12:38:41;26.90;21.70
7159;DHT22;63175;52.374;13.132;2023-03-01T12:41:38;25.70;22.50
7159;DHT22;63175;52.374;13.132;2023-03-01T12:44:21;24.40;23.00
7159;DHT22;63175;52.374;13.132;2023-03-01T12:47:01;23.00;23.50
7159;DHT22;63175;52.374;13.132;2023-03-01T12:49:34;22.00;24.00
7159;DHT22;63175;52.374;13.132;2023-03-01T12:52:11;21.20;24.20
7159;DHT22;63175;52.374;13.132;2023-03-01T12:54:39;20.60;24.70
7159;DHT22;63175;52.374;13.132;2023-03-01T12:57:12;20.10;25.00
7159;DHT22;63175;52.374;13.132;2023-03-01T12:59:48;19.80;25.00
7159;DHT22;63175;52.374;13.132;2023-03-01T13:02:23;19.50;25.10
7159;DHT22;63175;52.374;13.132;2023-03-01T13:05:01;19.40;25.30
7159;DHT22;63175;52.374;13.132;2023-03-01T13:07:36;19.20;25.40
7159;DHT22;63175;52.374;13.132;2023-03-01T13:10:19;19.00;25.40
7159;DHT22;63175;52.374;13.132;2023-03-01T13:12:59;18.90;25.30
7159;DHT22;63175;52.374;13.132;2023-03-01T13:15:31;18.80;25.00
7159;DHT22;63175;52.374;13.132;2023-03-01T13:18:01;18.60;25.10
7159;DHT22;63175;52.374;13.132;2023-03-01T13:20:32;18.50;25.50
7159;DHT22;63175;52.374;13.132;2023-03-01T13:23:06;18.50;25.70
7159;DHT22;63175;52.374;13.132;2023-03-01T13:25:33;18.50;25.70
7159;DHT22;63175;52.374;13.132;2023-03-01T13:31:03;18.70;25.60
7159;DHT22;63175;52.374;13.132;2023-03-01T13:33:42;18.70;25.30
7159;DHT22;63175;52.374;13.132;2023-03-01T13:36:10;18.80;25.30
7159;DHT22;63175;52.374;13.132;2023-03-01T13:38:55;18.90;25.10
7159;DHT22;63175;52.374;13.132;2023-03-01T13:41:48;18.80;25.00
7159;DHT22;63175;52.374;13.132;2023-03-01T13:44:21;18.80;24.90
7159;DHT22;63175;52.374;13.132;2023-03-01T13:46:56;18.60;25.00
7159;DHT22;63175;52.374;13.132;2023-03-01T13:49:26;18.40;25.00
7159;DHT22;63175;52.374;13.132;2023-03-01T13:51:54;18.20;24.90
7159;DHT22;63175;52.374;13.132;2023-03-01T13:54:27;17.90;24.90
7159;DHT22;63175;52.374;13.132;2023-03-01T13:56:55;17.80;25.40
7159;DHT22;63175;52.374;13.132;2023-03-01T13:59:22;17.90;25.80
7159;DHT22;63175;52.374;13.132;2023-03-01T14:01:54;18.00;25.80
7159;DHT22;63175;52.374;13.132;2023-03-01T14:04:23;18.00;25.60
7159;DHT22;63175;52.374;13.132;2023-03-01T14:06:51;18.20;25.80
7159;DHT22;63175;52.374;13.132;2023-03-01T14:09:21;18.30;25.80
7159;DHT22;63175;52.374;13.132;2023-03-01T14:12:12;18.30;25.60
7159;DHT22;63175;52.374;13.132;2023-03-01T14:14:48;18.40;25.20
7159;DHT22;63175;52.374;13.132;2023-03-01T14:17:31;18.30;24.60
7159;DHT22;63175;52.374;13.132;2023-03-01T14:20:17;18.20;24.90
7159;DHT22;63175;52.374;13.132;2023-03-01T14:22:45;18.10;24.80
7159;DHT22;63175;52.374;13.132;2023-03-01T14:25:27;18.10;24.80
7159;DHT22;63175;52.374;13.132;2023-03-01T14:27:58;18.00;24.40
7159;DHT22;63175;52.374;13.132;2023-03-01T14:30:26;17.70;24.40
7159;DHT22;63175;52.374;13.132;2023-03-01T14:32:59;17.30;24.70
7159;DHT22;63175;52.374;13.132;2023-03-01T14:35:28;17.10;25.00
7159;DHT22;63175;52.374;13.132;2023-03-01T14:37:55;16.90;25.30
7159;DHT22;63175;52.374;13.132;2023-03-01T14:40:25;16.80;25.30
7159;DHT22;63175;52.374;13.132;2023-03-01T14:42:54;16.80;25.30
7159;DHT22;63175;52.374;13.132;2023-03-01T14:45:26;16.70;25.50
7159;DHT22;63175;52.374;13.132;2023-03-01T14:47:54;16.50;25.60
7159;DHT22;63175;52.374;13.132;2023-03-01T14:50:25;16.30;25.50
7159;DHT22;63175;52.374;13.132;2023-03-01T14:52:55;16.00;25.70
7159;DHT22;63175;52.374;13.132;2023-03-01T14:55:27;15.80;25.90
7159;DHT22;63175;52.374;13.132;2023-03-01T14:57:56;15.50;25.90
7159;DHT22;63175;52.374;13.132;2023-03-01T15:00:26;15.30;26.10
7159;DHT22;63175;52.374;13.132;2023-03-01T15:02:55;15.10;26.20
7159;DHT22;63175;52.374;13.132;2023-03-01T15:05:27;14.90;26.30
7159;DHT22;63175;52.374;13.132;2023-03-01T15:07:57;14.60;26.50
7159;DHT22;63175;52.374;13.132;2023-03-01T15:10:27;14.40;26.90
7159;DHT22;63175;52.374;13.132;2023-03-01T15:12:54;14.10;27.10
7159;DHT22;63175;52.374;13.132;2023-03-01T15:15:37;13.90;27.30
7159;DHT22;63175;52.374;13.132;2023-03-01T15:18:14;13.70;27.60
7159;DHT22;63175;52.374;13.132;2023-03-01T15:20:43;13.50;27.90
7159;DHT22;63175;52.374;13.132;2023-03-01T15:23:20;13.40;28.10
7159;DHT22;63175;52.374;13.132;2023-03-01T15:25:48;13.20;28.20
7159;DHT22;63175;52.374;13.132;2023-03-01T15:28:22;13.10;28.20
7159;DHT22;63175;52.374;13.132;2023-03-01T15:30:54;13.00;28.40
7159;DHT22;63175;52.374;13.132;2023-03-01T15:33:33;12.90;28.60
7159;DHT22;63175;52.374;13.132;2023-03-01T15:36:04;12.90;28.90
7159;DHT22;63175;52.374;13.132;2023-03-01T15:38:53;12.80;28.80
7159;DHT22;63175;52.374;13.132;2023-03-01T15:41:25;12.70;29.10
7159;DHT22;63175;52.374;13.132;2023-03-01T15:43:53;12.60;29.30
7159;DHT22;63175;52.374;13.132;2023-03-01T15:46:26;12.50;29.20
7159;DHT22;63175;52.374;13.132;2023-03-01T15:48:57;12.30;29.20
7159;DHT22;63175;52.374;13.132;2023-03-01T15:51:30;12.20;29.30
7159;DHT22;63175;52.374;13.132;2023-03-01T15:53:59;12.10;29.60
7159;DHT22;63175;52.374;13.132;2023-03-01T15:56:27;11.90;29.90
7159;DHT22;63175;52.374;13.132;2023-03-01T15:58:57;11.90;30.10
7159;DHT22;63175;52.374;13.132;2023-03-01T16:01:25;11.80;30.20
7159;DHT22;63175;52.374;13.132;2023-03-01T16:03:52;11.80;30.30
7159;DHT22;63175;52.374;13.132;2023-03-01T16:06:22;11.70;30.60